sensor_id;sensor_type;location;lat;lon;timestamp;temperature;humidity
27954;DHT22;15290;48.148;17.106;2022-12-18T00:00:46;-1.60;99.90
27954;DHT22;15290;48.148;17.106;2022-12-18T00:03:35;-1.60;99.90
27954;DHT22;15290;48.148;17.106;2022-12-18T00:06:01;-1.60;99.90
27954;DHT22;15290;48.148;17.106;2022-12-18T00:08:28;-1.60;99.90
27954;DHT22;15290;48.148;17.106;2022-12-18T00:10:54;-1.60;99.90
27954;DHT22;15290;48.148;17.106;2022-12-18T00:13:19;-1.60;99.90
27954;DHT22;15290;48.148;17.106;2022-12-18T00:15:45;-1.60;99.90
27954;DHT22;15290;48.148;17.106;2022-12-18T00:18:11;-1.60;99.90
27954;DHT22;15290;48.148;17.106;2022-12-18T00:20:40;-1.70;99.90
27954;DHT22;15290;48.148;17.106;2022-12-18T00:23:06;-1.60;99.90
27954;DHT22;15290;48.148;17.106;2022-12-18T00:25:33;-1.70;99.90
27954;DHT22;15290;48.148;17.106;2022-12-18T00:28:00;-1.70;99.90
27954;DHT22;15290;48.148;17.106;2022-12-18T00:30:26;-1.70;99.90
27954;DHT22;15290;48.148;17.106;2022-12-18T00:32:52;-1.70;99.90
27954;DHT22;15290;48.148;17.106;2022-12-18T00:35:18;-1.70;99.90
27954;DHT22;15290;48.148;17.106;2022-12-18T00:37:43;-1.70;99.90
27954;DHT22;15290;48.148;17.106;2022-12-18T00:40:11;-1.70;99.90
27954;DHT22;15290;48.148;17.106;2022-12-18T00:42:37;-1.70;99.90
27954;DHT22;15290;48.148;17.106;2022-12-18T00:45:29;-1.20;99.90
27954;DHT22;15290;48.148;17.106;2022-12-18T00:47:56;-1.60;99.90
27954;DHT22;15290;48.148;17.106;2022-12-18T00:50:23;-1.60;99.90
27954;DHT22;15290;48.148;17.106;2022-12-18T00:52:49;-1.60;99.90
27954;DHT22;15290;48.148;17.106;2022-12-18T00:55:15;-1.60;99.90
27954;DHT22;15290;48.148;17.106;2022-12-18T00:57:41;-1.50;99.90
27954;DHT22;15290;48.148;17.106;2022-12-18T01:00:10;-1.60;99.90
27954;DHT22;15290;48.148;17.106;2022-12-18T01:02:35;-1.60;99.90
27954;DHT22;15290;48.148;17.106;2022-12-18T01:05:01;-1.60;99.90
27954;DHT22;15290;48.148;17.106;2022-12-18T01:07:27;-1.60;99.90
27954;DHT22;15290;48.148;17.106;2022-12-18T01:09:53;-1.60;99.90
27954;DHT22;15290;48.148;17.106;2022-12-18T01:12:18;-1.60;99.90
27954;DHT22;15290;48.148;17.106;2022-12-18T01:14:45;-1.60;99.90
27954;DHT22;15290;48.148;17.106;2022-12-18T01:17:11;-1.60;99.90
27954;DHT22;15290;48.148;17.106;2022-12-18T01:19:36;-1.60;99.90
27954;DHT22;15290;48.148;17.106;2022-12-18T01:22:02;-1.60;99.90
27954;DHT22;15290;48.148;17.106;2022-12-18T01:24:28;-1.60;99.90
27954;DHT22;15290;48.148;17.106;2022-12-18T01:26:54;-1.60;99.90
27954;DHT22;15290;48.148;17.106;2022-12-18T01:29:20;-1.70;99.90
27954;DHT22;15290;48.148;17.106;2022-12-18T01:31:45;-1.70;99.90
27954;DHT22;15290;48.148;17.106;2022-12-18T01:34:12;-1.80;99.90
27954;DHT22;15290;48.148;17.106;2022-12-18T01:36:39;-1.80;99.90
27954;DHT22;15290;48.148;17.106;2022-12-18T01:39:12;-1.90;99.90
27954;DHT22;15290;48.148;17.106;2022-12-18T01:41:37;-1.80;99.90
27954;DHT22;15290;48.148;17.106;2022-12-18T01:47:22;-1.90;99.90
27954;DHT22;15290;48.148;17.106;2022-12-18T01:49:49;-1.90;99.90
27954;DHT22;15290;48.148;17.106;2022-12-18T01:52:15;-1.90;99.90
27954;DHT22;15290;48.148;17.106;2022-12-18T01:54:42;-1.90;99.90
27954;DHT22;15290;48.148;17.106;2022-12-18T01:57:08;-1.90;99.90
27954;DHT22;15290;48.148;17.106;2022-12-18T01:59:40;-2.00;99.90
27954;DHT22;15290;48.148;17.106;2022-12-18T02:02:06;-2.00;99.90
27954;DHT22;15290;48.148;17.106;2022-12-18T02:04:33;-2.00;99.90
27954;DHT22;15290;48.148;17.106;2022-12-18T02:10:00;-2.00;99.90
27954;DHT22;15290;48.148;17.106;2022-12-18T02:13:00;-2.00;99.90
27954;DHT22;15290;48.148;17.106;2022-12-18T02:15:52;-2.10;99.90
27954;DHT22;15290;48.148;17.106;2022-12-18T02:18:24;-2.10;99.90
27954;DHT22;15290;48.148;17.106;2022-12-18T02:26:38;-2.10;99.90
27954;DHT22;15290;48.148;17.106;2022-12-18T02:29:22;-2.20;99.90
27954;DHT22;15290;48.148;17.106;2022-12-18T02:31:52;-2.00;99.90
27954;DHT22;15290;48.148;17.106;2022-12-18T02:34:20;-2.10;99.90
27954;DHT22;15290;48.148;17.106;2022-12-18T02:36:48;-2.20;99.90
27954;DHT22;15290;48.148;17.106;2022-12-18T02:39:16;-2.20;99.90
27954;DHT22;15290;48.148;17.106;2022-12-18T02:41:42;-2.20;99.90
27954;DHT22;15290;48.148;17.106;2022-12-18T02:44:11;-2.20;99.90
27954;DHT22;15290;48.148;17.106;2022-12-18T02:46:43;-2.20;99.90
27954;DHT22;15290;48.148;17.106;2022-12-18T02:49:36;-2.20;99.90
27954;DHT22;15290;48.148;17.106;2022-12-18T02:55:13;-2.20;99.90
27954;DHT22;15290;48.148;17.106;2022-12-18T03:00:34;-2.30;99.90
27954;DHT22;15290;48.148;17.106;2022-12-18T03:05:40;-2.30;99.90
27954;DHT22;15290;48.148;17.106;2022-12-18T03:08:28;-2.30;99.90
27954;DHT22;15290;48.148;17.106;2022-12-18T03:10:58;-2.30;99.90
27954;DHT22;15290;48.148;17.106;2022-12-18T03:13:36;-2.40;99.90
27954;DHT22;15290;48.148;17.106;2022-12-18T03:16:03;-2.40;99.90
27954;DHT22;15290;48.148;17.106;2022-12-18T03:21:05;-2.40;99.90
27954;DHT22;15290;48.148;17.106;2022-12-18T03:23:39;-2.50;99.90
27954;DHT22;15290;48.148;17.106;2022-12-18T03:26:09;-2.50;99.90
27954;DHT22;15290;48.148;17.106;2022-12-18T03:28:38;-2.50;99.90
27954;DHT22;15290;48.148;17.106;2022-12-18T03:31:05;-2.50;99.90
27954;DHT22;15290;48.148;17.106;2022-12-18T03:33:53;-2.50;99.90
27954;DHT22;15290;48.148;17.106;2022-12-18T03:36:20;-2.50;99.90
27954;DHT22;15290;48.148;17.106;2022-12-18T03:38:50;-2.60;99.90
27954;DHT22;15290;48.148;17.106;2022-12-18T03:41:43;-2.60;99.90
27954;DHT22;15290;48.148;17.106;2022-12-18T03:47:11;-2.60;99.90
27954;DHT22;15290;48.148;17.106;2022-12-18T03:49:57;-2.60;99.90
27954;DHT22;15290;48.148;17.106;2022-12-18T03:54:52;-2.60;99.90
27954;DHT22;15290;48.148;17.106;2022-12-18T03:57:21;-2.60;99.90
27954;DHT22;15290;48.148;17.106;2022-12-18T03:59:52;-2.60;99.90
27954;DHT22;15290;48.148;17.106;2022-12-18T04:02:22;-2.70;99.90
27954;DHT22;15290;48.148;17.106;2022-12-18T04:04:53;-2.80;99.90
27954;DHT22;15290;48.148;17.106;2022-12-18T04:07:21;-2.80;99.90
27954;DHT22;15290;48.148;17.106;2022-12-18T04:09:48;-2.80;99.90
27954;DHT22;15290;48.148;17.106;2022-12-18T04:12:15;-2.80;99.90
27954;DHT22;15290;48.148;17.106;2022-12-18T04:14:40;-2.80;99.90
27954;DHT22;15290;48.148;17.106;2022-12-18T04:17:06;-2.90;99.90
27954;DHT22;15290;48.148;17.106;2022-12-18T04:19:32;-2.80;99.90
27954;DHT22;15290;48.148;17.106;2022-12-18T04:21:57;-2.90;99.90
27954;DHT22;15290;48.148;17.106;2022-12-18T04:24:23;-2.90;99.90
27954;DHT22;15290;48.148;17.106;2022-12-18T04:26:49;-2.90;99.90
27954;DHT22;15290;48.148;17.106;2022-12-18T04:29:14;-2.90;99.90
27954;DHT22;15290;48.148;17.106;2022-12-18T04:31:40;-2.90;99.90
27954;DHT22;15290;48.148;17.106;2022-12-18T04:34:06;-2.90;99.90
27954;DHT22;15290;48.148;17.106;2022-12-18T04:36:32;-2.90;99.90
27954;DHT22;15290;48.148;17.106;2022-12-18T04:38:57;-2.90;99.90
27954;DHT22;15290;48.148;17.106;2022-12-18T04:41:23;-3.00;99.90
27954;DHT22;15290;48.148;17.106;2022-12-18T04:43:49;-3.00;99.90
27954;DHT22;15290;48.148;17.106;2022-12-18T04:46:14;-3.00;99.90
27954;DHT22;15290;48.148;17.106;2022-12-18T04:48:40;-3.00;99.90
27954;DHT22;15290;48.148;17.106;2022-12-18T04:51:06;-3.00;99.90
27954;DHT22;15290;48.148;17.106;2022-12-18T04:53:33;-3.10;99.90
27954;DHT22;15290;48.148;17.106;2022-12-18T04:58:28;-3.10;99.90
27954;DHT22;15290;48.148;17.106;2022-12-18T05:00:54;-3.10;99.90
27954;DHT22;15290;48.148;17.106;2022-12-18T05:03:20;-3.10;99.90
27954;DHT22;15290;48.148;17.106;2022-12-18T05:05:49;-3.10;99.90
27954;DHT22;15290;48.148;17.106;2022-12-18T05:08:16;-3.00;99.90
27954;DHT22;15290;48.148;17.106;2022-12-18T05:10:42;-3.10;99.90
27954;DHT22;15290;48.148;17.106;2022-12-18T05:13:07;-3.10;99.90
27954;DHT22;15290;48.148;17.106;2022-12-18T05:15:33;-3.00;99.90
27954;DHT22;15290;48.148;17.106;2022-12-18T05:18:00;-3.10;99.90
27954;DHT22;15290;48.148;17.106;2022-12-18T05:20:28;-3.00;99.90
27954;DHT22;15290;48.148;17.106;2022-12-18T05:22:54;-3.00;99.90
27954;DHT22;15290;48.148;17.106;2022-12-18T05:25:20;-3.00;99.90
27954;DHT22;15290;48.148;17.106;2022-12-18T05:27:47;-3.00;99.90
27954;DHT22;15290;48.148;17.106;2022-12-18T05:30:14;-3.00;99.90
27954;DHT22;15290;48.148;17.106;2022-12-18T05:32:40;-2.90;99.90
27954;DHT22;15290;48.148;17.106;2022-12-18T05:35:08;-2.90;99.90
27954;DHT22;15290;48.148;17.106;2022-12-18T05:37:34;-2.90;99.90
27954;DHT22;15290;48.148;17.106;2022-12-18T05:40:00;-3.00;99.90
27954;DHT22;15290;48.148;17.106;2022-12-18T05:42:26;-3.00;99.90
27954;DHT22;15290;48.148;17.106;2022-12-18T05:44:51;-3.10;99.90
27954;DHT22;15290;48.148;17.106;2022-12-18T05:47:17;-3.10;99.90
27954;DHT22;15290;48.148;17.106;2022-12-18T05:49:43;-3.20;99.90
27954;DHT22;15290;48.148;17.106;2022-12-18T05:52:08;-3.20;99.90
27954;DHT22;15290;48.148;17.106;2022-12-18T05:54:34;-3.20;99.90
27954;DHT22;15290;48.148;17.106;2022-12-18T05:57:00;-3.20;99.90
27954;DHT22;15290;48.148;17.106;2022-12-18T05:59:26;-3.30;99.90
27954;DHT22;15290;48.148;17.106;2022-12-18T06:01:52;-3.30;99.90
27954;DHT22;15290;48.148;17.106;2022-12-18T06:04:17;-3.30;99.90
27954;DHT22;15290;48.148;17.106;2022-12-18T06:06:43;-3.30;99.90
27954;DHT22;15290;48.148;17.106;2022-12-18T06:09:09;-3.30;99.90
27954;DHT22;15290;48.148;17.106;2022-12-18T06:11:38;-3.30;99.90
27954;DHT22;15290;48.148;17.106;2022-12-18T06:14:05;-3.30;99.90
27954;DHT22;15290;48.148;17.106;2022-12-18T06:16:32;-3.30;99.90
27954;DHT22;15290;48.148;17.106;2022-12-18T06:18:59;-3.30;99.90
27954;DHT22;15290;48.148;17.106;2022-12-18T06:21:26;-3.30;99.90
27954;DHT22;15290;48.148;17.106;2022-12-18T06:23:52;-3.20;99.90
27954;DHT22;15290;48.148;17.106;2022-12-18T06:26:18;-3.20;99.90
27954;DHT22;15290;48.148;17.106;2022-12-18T06:28:45;-3.20;99.90
27954;DHT22;15290;48.148;17.106;2022-12-18T06:31:11;-3.30;99.90
27954;DHT22;15290;48.148;17.106;2022-12-18T06:33:40;-3.30;99.90
27954;DHT22;15290;48.148;17.106;2022-12-18T06:36:10;-3.40;99.90
27954;DHT22;15290;48.148;17.106;2022-12-18T06:38:40;-3.40;99.90
27954;DHT22;15290;48.148;17.106;2022-12-18T06:41:08;-3.30;99.90
27954;DHT22;15290;48.148;17.106;2022-12-18T06:43:33;-3.30;99.90
27954;DHT22;15290;48.148;17.106;2022-12-18T06:46:01;-3.30;99.90
27954;DHT22;15290;48.148;17.106;2022-12-18T06:48:27;-3.30;99.90
27954;DHT22;15290;48.148;17.106;2022-12-18T06:50:52;-3.30;99.90
27954;DHT22;15290;48.148;17.106;2022-12-18T06:53:19;-3.40;99.90
27954;DHT22;15290;48.148;17.106;2022-12-18T06:55:45;-3.40;99.90
27954;DHT22;15290;48.148;17.106;2022-12-18T06:58:13;-3.40;99.90
27954;DHT22;15290;48.148;17.106;2022-12-18T07:00:39;-3.40;99.90
27954;DHT22;15290;48.148;17.106;2022-12-18T07:03:05;-3.40;99.90
27954;DHT22;15290;48.148;17.106;2022-12-18T07:05:31;-3.30;99.90
27954;DHT22;15290;48.148;17.106;2022-12-18T07:07:57;-3.30;99.90
27954;DHT22;15290;48.148;17.106;2022-12-18T07:10:23;-3.40;99.90
27954;DHT22;15290;48.148;17.106;2022-12-18T07:12:48;-3.40;99.90
27954;DHT22;15290;48.148;17.106;2022-12-18T07:15:14;-3.30;99.90
27954;DHT22;15290;48.148;17.106;2022-12-18T07:17:40;-3.30;99.90
27954;DHT22;15290;48.148;17.106;2022-12-18T07:20:06;-3.30;99.90
27954;DHT22;15290;48.148;17.106;2022-12-18T07:22:32;-3.20;99.90
27954;DHT22;15290;48.148;17.106;2022-12-18T07:24:58;-3.20;99.90
27954;DHT22;15290;48.148;17.106;2022-12-18T07:27:24;-3.10;99.90
27954;DHT22;15290;48.148;17.106;2022-12-18T07:29:49;-3.10;99.90
27954;DHT22;15290;48.148;17.106;2022-12-18T07:32:15;-3.00;99.90
27954;DHT22;15290;48.148;17.106;2022-12-18T07:34:42;-3.00;99.90
27954;DHT22;15290;48.148;17.106;2022-12-18T07:37:08;-2.90;99.90
27954;DHT22;15290;48.148;17.106;2022-12-18T07:39:34;-2.80;99.90
27954;DHT22;15290;48.148;17.106;2022-12-18T07:42:00;-2.80;99.90
27954;DHT22;15290;48.148;17.106;2022-12-18T07:44:45;-2.80;99.90
27954;DHT22;15290;48.148;17.106;2022-12-18T07:47:11;-2.70;99.90
27954;DHT22;15290;48.148;17.106;2022-12-18T07:49:37;-2.70;99.90
27954;DHT22;15290;48.148;17.106;2022-12-18T07:52:03;-2.60;99.90
27954;DHT22;15290;48.148;17.106;2022-12-18T07:54:29;-2.50;99.90
27954;DHT22;15290;48.148;17.106;2022-12-18T07:56:55;-2.40;99.90
27954;DHT22;15290;48.148;17.106;2022-12-18T07:59:20;-2.40;99.90
27954;DHT22;15290;48.148;17.106;2022-12-18T08:01:46;-2.30;99.90
27954;DHT22;15290;48.148;17.106;2022-12-18T08:04:12;-2.20;99.90
27954;DHT22;15290;48.148;17.106;2022-12-18T08:06:38;-2.20;99.90
27954;DHT22;15290;48.148;17.106;2022-12-18T08:09:03;-2.10;99.90
27954;DHT22;15290;48.148;17.106;2022-12-18T08:11:29;-2.10;99.90
27954;DHT22;15290;48.148;17.106;2022-12-18T08:13:55;-2.00;99.90
27954;DHT22;15290;48.148;17.106;2022-12-18T08:16:23;-2.00;99.90
27954;DHT22;15290;48.148;17.106;2022-12-18T08:18:51;-1.90;99.90
27954;DHT22;15290;48.148;17.106;2022-12-18T08:21:20;-1.90;99.90
27954;DHT22;15290;48.148;17.106;2022-12-18T08:23:47;-1.80;99.90
27954;DHT22;15290;48.148;17.106;2022-12-18T08:26:13;-1.70;99.90
27954;DHT22;15290;48.148;17.106;2022-12-18T08:28:40;-1.70;99.90
27954;DHT22;15290;48.148;17.106;2022-12-18T08:31:06;-1.70;99.90
27954;DHT22;15290;48.148;17.106;2022-12-18T08:33:33;-1.60;99.90
27954;DHT22;15290;48.148;17.106;2022-12-18T08:35:59;-1.60;99.90
27954;DHT22;15290;48.148;17.106;2022-12-18T08:38:25;-1.40;99.90
27954;DHT22;15290;48.148;17.106;2022-12-18T08:40:58;-1.30;99.90
27954;DHT22;15290;48.148;17.106;2022-12-18T08:43:25;-1.10;99.90
27954;DHT22;15290;48.148;17.106;2022-12-18T08:46:12;-1.00;99.90
27954;DHT22;15290;48.148;17.106;2022-12-18T08:48:37;-0.90;99.90
27954;DHT22;15290;48.148;17.106;2022-12-18T08:51:03;-0.80;99.90
27954;DHT22;15290;48.148;17.106;2022-12-18T08:53:29;-0.80;99.90
27954;DHT22;15290;48.148;17.106;2022-12-18T08:55:56;-0.70;99.90
27954;DHT22;15290;48.148;17.106;2022-12-18T08:58:24;-0.60;99.90
27954;DHT22;15290;48.148;17.106;2022-12-18T09:00:50;-0.60;99.90
27954;DHT22;15290;48.148;17.106;2022-12-18T09:03:17;-0.50;99.90
27954;DHT22;15290;48.148;17.106;2022-12-18T09:05:45;-0.40;99.90
27954;DHT22;15290;48.148;17.106;2022-12-18T09:08:15;-0.40;99.90
27954;DHT22;15290;48.148;17.106;2022-12-18T09:10:48;-0.40;99.90
27954;DHT22;15290;48.148;17.106;2022-12-18T09:13:15;-0.40;99.90
27954;DHT22;15290;48.148;17.106;2022-12-18T09:15:50;-0.30;99.90
27954;DHT22;15290;48.148;17.106;2022-12-18T09:18:17;-0.20;99.90
27954;DHT22;15290;48.148;17.106;2022-12-18T09:20:43;-0.10;99.90
27954;DHT22;15290;48.148;17.106;2022-12-18T09:23:09;0.00;99.90
27954;DHT22;15290;48.148;17.106;2022-12-18T09:25:35;0.10;99.90
27954;DHT22;15290;48.148;17.106;2022-12-18T09:28:03;0.20;99.90
27954;DHT22;15290;48.148;17.106;2022-12-18T09:30:31;0.20;99.90
27954;DHT22;15290;48.148;17.106;2022-12-18T09:32:59;0.20;99.90
27954;DHT22;15290;48.148;17.106;2022-12-18T09:35:25;0.10;99.90
27954;DHT22;15290;48.148;17.106;2022-12-18T09:37:50;0.10;99.90
27954;DHT22;15290;48.148;17.106;2022-12-18T09:40:19;0.30;99.90
27954;DHT22;15290;48.148;17.106;2022-12-18T09:42:50;0.50;99.90
27954;DHT22;15290;48.148;17.106;2022-12-18T09:45:18;0.50;99.90
27954;DHT22;15290;48.148;17.106;2022-12-18T09:47:45;0.50;99.90
27954;DHT22;15290;48.148;17.106;2022-12-18T09:50:27;0.50;99.90
27954;DHT22;15290;48.148;17.106;2022-12-18T09:52:57;0.50;99.90
27954;DHT22;15290;48.148;17.106;2022-12-18T09:55:41;0.60;99.90
27954;DHT22;15290;48.148;17.106;2022-12-18T09:59:30;0.80;99.90
27954;DHT22;15290;48.148;17.106;2022-12-18T10:01:22;0.80;99.90
27954;DHT22;15290;48.148;17.106;2022-12-18T10:03:48;0.70;99.90
27954;DHT22;15290;48.148;17.106;2022-12-18T10:06:36;0.70;99.90
27954;DHT22;15290;48.148;17.106;2022-12-18T10:12:08;1.00;99.90
27954;DHT22;15290;48.148;17.106;2022-12-18T10:15:24;1.20;99.90
27954;DHT22;15290;48.148;17.106;2022-12-18T10:20:53;1.10;99.90
27954;DHT22;15290;48.148;17.106;2022-12-18T10:23:32;1.00;99.90
27954;DHT22;15290;48.148;17.106;2022-12-18T10:26:02;0.80;99.90
27954;DHT22;15290;48.148;17.106;2022-12-18T10:28:30;0.80;99.90
27954;DHT22;15290;48.148;17.106;2022-12-18T10:30:57;0.80;99.90
27954;DHT22;15290;48.148;17.106;2022-12-18T10:33:27;0.80;99.90
27954;DHT22;15290;48.148;17.106;2022-12-18T10:35:54;0.80;99.90
27954;DHT22;15290;48.148;17.106;2022-12-18T10:38:28;0.90;99.90
27954;DHT22;15290;48.148;17.106;2022-12-18T10:43:43;0.90;99.90
27954;DHT22;15290;48.148;17.106;2022-12-18T10:46:15;1.00;99.90
27954;DHT22;15290;48.148;17.106;2022-12-18T10:48:50;1.00;99.90
27954;DHT22;15290;48.148;17.106;2022-12-18T10:51:32;1.10;99.90
27954;DHT22;15290;48.148;17.106;2022-12-18T10:54:13;1.30;99.90
27954;DHT22;15290;48.148;17.106;2022-12-18T10:56:40;1.40;99.50
27954;DHT22;15290;48.148;17.106;2022-12-18T10:59:12;1.50;99.20
27954;DHT22;15290;48.148;17.106;2022-12-18T11:01:58;1.60;98.90
27954;DHT22;15290;48.148;17.106;2022-12-18T11:04:26;1.60;98.60
27954;DHT22;15290;48.148;17.106;2022-12-18T11:07:04;1.70;98.30
27954;DHT22;15290;48.148;17.106;2022-12-18T11:09:37;1.70;97.70
27954;DHT22;15290;48.148;17.106;2022-12-18T11:12:15;1.60;97.90
27954;DHT22;15290;48.148;17.106;2022-12-18T11:14:45;1.50;98.00
27954;DHT22;15290;48.148;17.106;2022-12-18T11:17:33;1.40;98.10
27954;DHT22;15290;48.148;17.106;2022-12-18T11:20:06;1.20;98.20
27954;DHT22;15290;48.148;17.106;2022-12-18T11:22:34;1.10;98.20
27954;DHT22;15290;48.148;17.106;2022-12-18T11:25:19;1.00;98.50
27954;DHT22;15290;48.148;17.106;2022-12-18T11:27:54;1.10;98.80
27954;DHT22;15290;48.148;17.106;2022-12-18T11:30:27;1.30;98.80
27954;DHT22;15290;48.148;17.106;2022-12-18T11:38:21;1.70;97.90
27954;DHT22;15290;48.148;17.106;2022-12-18T11:41:22;1.80;97.60
27954;DHT22;15290;48.148;17.106;2022-12-18T11:44:11;1.90;97.30
27954;DHT22;15290;48.148;17.106;2022-12-18T11:46:46;1.80;97.10
27954;DHT22;15290;48.148;17.106;2022-12-18T11:49:21;1.60;97.20
27954;DHT22;15290;48.148;17.106;2022-12-18T11:52:08;1.50;97.40
27954;DHT22;15290;48.148;17.106;2022-12-18T11:54:36;1.40;97.60
27954;DHT22;15290;48.148;17.106;2022-12-18T11:57:14;1.30;97.60
27954;DHT22;15290;48.148;17.106;2022-12-18T11:59:53;1.20;97.50
27954;DHT22;15290;48.148;17.106;2022-12-18T12:16:58;1.50;97.30
27954;DHT22;15290;48.148;17.106;2022-12-18T12:19:56;1.50;97.30
27954;DHT22;15290;48.148;17.106;2022-12-18T12:31:28;1.10;97.60
27954;DHT22;15290;48.148;17.106;2022-12-18T12:34:22;1.00;98.30
27954;DHT22;15290;48.148;17.106;2022-12-18T12:37:07;1.00;97.90
27954;DHT22;15290;48.148;17.106;2022-12-18T12:39:40;1.00;98.00
27954;DHT22;15290;48.148;17.106;2022-12-18T12:42:35;0.90;98.20
27954;DHT22;15290;48.148;17.106;2022-12-18T12:48:02;0.90;98.00
27954;DHT22;15290;48.148;17.106;2022-12-18T12:50:30;0.80;98.30
27954;DHT22;15290;48.148;17.106;2022-12-18T12:53:00;0.70;98.00
27954;DHT22;15290;48.148;17.106;2022-12-18T12:55:28;0.60;98.30
27954;DHT22;15290;48.148;17.106;2022-12-18T12:58:18;0.70;98.50
27954;DHT22;15290;48.148;17.106;2022-12-18T13:01:16;0.70;98.50
27954;DHT22;15290;48.148;17.106;2022-12-18T13:12:58;0.50;98.50
27954;DHT22;15290;48.148;17.106;2022-12-18T13:15:45;0.50;98.60
27954;DHT22;15290;48.148;17.106;2022-12-18T13:18:23;0.50;98.70
27954;DHT22;15290;48.148;17.106;2022-12-18T13:25:57;0.50;98.70
27954;DHT22;15290;48.148;17.106;2022-12-18T13:34:27;0.50;98.80
27954;DHT22;15290;48.148;17.106;2022-12-18T13:36:57;0.50;98.80
27954;DHT22;15290;48.148;17.106;2022-12-18T13:39:41;0.50;98.90
27954;DHT22;15290;48.148;17.106;2022-12-18T13:44:39;0.50;98.80
27954;DHT22;15290;48.148;17.106;2022-12-18T13:47:34;0.50;98.80
27954;DHT22;15290;48.148;17.106;2022-12-18T13:50:23;0.50;98.70
27954;DHT22;15290;48.148;17.106;2022-12-18T13:52:51;0.60;98.70
27954;DHT22;15290;48.148;17.106;2022-12-18T13:55:20;0.50;98.70
27954;DHT22;15290;48.148;17.106;2022-12-18T13:57:47;0.50;98.70
27954;DHT22;15290;48.148;17.106;2022-12-18T14:02:50;0.50;98.80
27954;DHT22;15290;48.148;17.106;2022-12-18T14:05:27;0.40;98.80
27954;DHT22;15290;48.148;17.106;2022-12-18T14:07:54;0.40;98.90
27954;DHT22;15290;48.148;17.106;2022-12-18T14:10:25;0.30;99.00
27954;DHT22;15290;48.148;17.106;2022-12-18T14:12:51;0.30;99.00
27954;DHT22;15290;48.148;17.106;2022-12-18T14:17:57;0.30;99.10
27954;DHT22;15290;48.148;17.106;2022-12-18T14:20:32;0.20;99.20
27954;DHT22;15290;48.148;17.106;2022-12-18T14:22:59;0.20;99.20
27954;DHT22;15290;48.148;17.106;2022-12-18T14:25:32;0.20;99.30
27954;DHT22;15290;48.148;17.106;2022-12-18T14:28:14;0.10;99.40
27954;DHT22;15290;48.148;17.106;2022-12-18T14:30:45;0.10;99.40
27954;DHT22;15290;48.148;17.106;2022-12-18T14:33:12;0.10;99.50
27954;DHT22;15290;48.148;17.106;2022-12-18T14:35:43;0.00;99.50
27954;DHT22;15290;48.148;17.106;2022-12-18T14:41:00;0.00;99.60
27954;DHT22;15290;48.148;17.106;2022-12-18T14:43:33;0.00;99.60
27954;DHT22;15290;48.148;17.106;2022-12-18T14:46:00;-0.10;99.70
27954;DHT22;15290;48.148;17.106;2022-12-18T14:48:40;-0.10;99.90
27954;DHT22;15290;48.148;17.106;2022-12-18T14:51:18;-0.10;99.90
27954;DHT22;15290;48.148;17.106;2022-12-18T14:53:49;-0.20;99.90
27954;DHT22;15290;48.148;17.106;2022-12-18T14:56:29;-0.20;99.90
27954;DHT22;15290;48.148;17.106;2022-12-18T15:01:26;-0.20;99.90
27954;DHT22;15290;48.148;17.106;2022-12-18T15:03:54;-0.20;99.90
27954;DHT22;15290;48.148;17.106;2022-12-18T15:06:37;-0.20;99.90
27954;DHT22;15290;48.148;17.106;2022-12-18T15:09:23;-0.30;99.90
27954;DHT22;15290;48.148;17.106;2022-12-18T15:11:49;-0.30;99.90
27954;DHT22;15290;48.148;17.106;2022-12-18T15:17:18;-0.30;99.90
27954;DHT22;15290;48.148;17.106;2022-12-18T15:19:46;-0.30;99.90
27954;DHT22;15290;48.148;17.106;2022-12-18T15:22:20;-0.30;99.90
27954;DHT22;15290;48.148;17.106;2022-12-18T15:24:47;-0.30;99.90
27954;DHT22;15290;48.148;17.106;2022-12-18T15:27:33;-0.30;99.90
27954;DHT22;15290;48.148;17.106;2022-12-18T15:32:41;-0.30;99.90
27954;DHT22;15290;48.148;17.106;2022-12-18T15:35:26;-0.30;99.90
27954;DHT22;15290;48.148;17.106;2022-12-18T15:37:52;-0.30;99.90
27954;DHT22;15290;48.148;17.106;2022-12-18T15:40:21;-0.30;99.90
27954;DHT22;15290;48.148;17.106;2022-12-18T15:42:50;-0.40;99.90
27954;DHT22;15290;48.148;17.106;2022-12-18T15:45:38;-0.40;99.90
27954;DHT22;15290;48.148;17.106;2022-12-18T15:48:22;-0.30;99.90
27954;DHT22;15290;48.148;17.106;2022-12-18T15:50:49;-0.30;99.90
27954;DHT22;15290;48.148;17.106;2022-12-18T15:53:15;-0.20;99.90
27954;DHT22;15290;48.148;17.106;2022-12-18T15:55:41;-0.10;99.90
27954;DHT22;15290;48.148;17.106;2022-12-18T15:58:26;-0.10;99.90
27954;DHT22;15290;48.148;17.106;2022-12-18T16:00:52;0.00;99.90
27954;DHT22;15290;48.148;17.106;2022-12-18T16:03:17;0.00;99.90
27954;DHT22;15290;48.148;17.106;2022-12-18T16:05:43;0.10;99.90
27954;DHT22;15290;48.148;17.106;2022-12-18T16:08:09;0.10;99.90
27954;DHT22;15290;48.148;17.106;2022-12-18T16:10:35;0.20;99.90
27954;DHT22;15290;48.148;17.106;2022-12-18T16:13:00;0.20;99.90
27954;DHT22;15290;48.148;17.106;2022-12-18T16:15:26;0.20;99.90
27954;DHT22;15290;48.148;17.106;2022-12-18T16:17:52;0.20;99.90
27954;DHT22;15290;48.148;17.106;2022-12-18T16:20:21;0.20;99.90
27954;DHT22;15290;48.148;17.106;2022-12-18T16:22:47;0.20;99.90
27954;DHT22;15290;48.148;17.106;2022-12-18T16:25:22;0.20;99.90
27954;DHT22;15290;48.148;17.106;2022-12-18T16:27:49;0.20;99.90
27954;DHT22;15290;48.148;17.106;2022-12-18T16:30:18;0.20;99.90
27954;DHT22;15290;48.148;17.106;2022-12-18T16:32:46;0.20;99.90
27954;DHT22;15290;48.148;17.106;2022-12-18T16:35:14;0.20;99.90
27954;DHT22;15290;48.148;17.106;2022-12-18T16:37:42;0.20;99.90
27954;DHT22;15290;48.148;17.106;2022-12-18T16:40:12;0.20;99.90
27954;DHT22;15290;48.148;17.106;2022-12-18T16:42:41;0.20;99.90
27954;DHT22;15290;48.148;17.106;2022-12-18T16:45:09;0.20;99.90
27954;DHT22;15290;48.148;17.106;2022-12-18T16:47:35;0.30;99.90
27954;DHT22;15290;48.148;17.106;2022-12-18T16:50:01;0.20;99.90
27954;DHT22;15290;48.148;17.106;2022-12-18T16:52:28;0.30;99.90
27954;DHT22;15290;48.148;17.106;2022-12-18T16:54:54;0.30;99.90
27954;DHT22;15290;48.148;17.106;2022-12-18T16:57:21;0.20;99.90
27954;DHT22;15290;48.148;17.106;2022-12-18T16:59:47;0.20;99.90
27954;DHT22;15290;48.148;17.106;2022-12-18T17:02:21;0.20;99.90
27954;DHT22;15290;48.148;17.106;2022-12-18T17:04:48;0.20;99.90
27954;DHT22;15290;48.148;17.106;2022-12-18T17:07:14;0.20;99.90
27954;DHT22;15290;48.148;17.106;2022-12-18T17:09:41;0.20;99.90
27954;DHT22;15290;48.148;17.106;2022-12-18T17:12:09;0.20;99.90
27954;DHT22;15290;48.148;17.106;2022-12-18T17:14:35;0.20;99.90
27954;DHT22;15290;48.148;17.106;2022-12-18T17:17:01;0.20;99.90
27954;DHT22;15290;48.148;17.106;2022-12-18T17:19:27;0.20;99.90
27954;DHT22;15290;48.148;17.106;2022-12-18T17:21:55;0.30;99.90
27954;DHT22;15290;48.148;17.106;2022-12-18T17:24:21;0.30;99.90
27954;DHT22;15290;48.148;17.106;2022-12-18T17:26:47;0.30;99.90
27954;DHT22;15290;48.148;17.106;2022-12-18T17:29:15;0.30;99.90
27954;DHT22;15290;48.148;17.106;2022-12-18T17:31:41;0.30;99.90